createdAt,value
2023-01-19T00:00:18.014Z,3.2
2023-01-19T00:01:18.890Z,3.3
2023-01-19T00:02:19.981Z,3.3
2023-01-19T00:03:20.887Z,3.4
2023-01-19T00:04:21.904Z,3.4
2023-01-19T00:05:22.943Z,3.5
2023-01-19T00:06:24.969Z,3.6
2023-01-19T00:07:25.920Z,3.6
2023-01-19T00:08:26.879Z,3.7
2023-01-19T00:09:27.911Z,3.7
2023-01-19T00:10:28.898Z,3.7
2023-01-19T00:11:29.960Z,3.7
2023-01-19T00:12:30.888Z,3.8
2023-01-19T00:13:31.921Z,3.8
2023-01-19T00:14:32.887Z,3.8
2023-01-19T00:15:33.898Z,3.8
2023-01-19T00:16:35.089Z,3.8
2023-01-19T00:17:35.929Z,3.9
2023-01-19T00:18:36.939Z,3.8
2023-01-19T00:19:37.919Z,3.8
2023-01-19T00:20:38.931Z,3.8
2023-01-19T00:21:40.137Z,3.8
2023-01-19T00:22:40.898Z,3.8
2023-01-19T00:23:41.899Z,3.8
2023-01-19T00:24:42.915Z,3.7
2023-01-19T00:25:43.870Z,3.7
2023-01-19T00:26:44.956Z,3.7
2023-01-19T00:27:45.899Z,3.6
2023-01-19T00:28:46.927Z,3.7
2023-01-19T00:29:48.024Z,3.8
2023-01-19T00:30:48.950Z,3.8
2023-01-19T00:31:49.958Z,3.8
2023-01-19T00:32:50.958Z,3.9
2023-01-19T00:33:52.896Z,3.9
2023-01-19T00:34:54.180Z,3.9
2023-01-19T00:35:56.030Z,3.8
2023-01-19T00:36:56.928Z,3.7
2023-01-19T00:37:58.180Z,3.7
2023-01-19T00:38:59.969Z,3.6
2023-01-19T00:40:01.115Z,3.6
2023-01-19T00:41:01.897Z,3.5
2023-01-19T00:42:02.958Z,3.4
2023-01-19T00:43:03.975Z,3.4
2023-01-19T00:44:04.948Z,3.4
2023-01-19T00:45:06.087Z,3.3
2023-01-19T00:46:07.017Z,3.3
2023-01-19T00:47:07.931Z,3.4
2023-01-19T00:48:08.918Z,3.4
2023-01-19T00:49:09.899Z,3.4
2023-01-19T00:50:10.938Z,3.4
2023-01-19T00:51:11.926Z,3.4
2023-01-19T00:52:12.921Z,3.3
2023-01-19T00:53:13.950Z,3.3
2023-01-19T00:54:14.947Z,3.4
2023-01-19T00:55:15.929Z,3.4
2023-01-19T00:56:16.954Z,3.4
2023-01-19T00:57:17.901Z,3.5
2023-01-19T00:58:18.928Z,3.4
2023-01-19T00:59:20.124Z,3.5
2023-01-19T01:00:20.929Z,3.5
2023-01-19T01:01:22.042Z,3.5
2023-01-19T01:02:23.137Z,3.6
2023-01-19T01:03:23.929Z,3.6
2023-01-19T01:04:24.988Z,3.6
2023-01-19T01:05:25.899Z,3.7
2023-01-19T01:06:26.979Z,3.6
2023-01-19T01:07:27.939Z,3.7
2023-01-19T01:08:28.901Z,3.7
2023-01-19T01:09:29.987Z,3.7
2023-01-19T01:10:30.911Z,3.7
2023-01-19T01:11:31.979Z,3.6
2023-01-19T01:12:32.943Z,3.6
2023-01-19T01:13:34.310Z,3.6
2023-01-19T01:14:36.014Z,3.4
2023-01-19T01:15:36.934Z,3.3
2023-01-19T01:16:37.933Z,3.1
2023-01-19T01:17:38.939Z,3.1
2023-01-19T01:18:40.038Z,3.2
2023-01-19T01:19:41.218Z,3.2
2023-01-19T01:20:42.961Z,3.2
2023-01-19T01:21:43.952Z,3.3
2023-01-19T01:22:45.030Z,3.2
2023-01-19T01:23:46.978Z,3.2
2023-01-19T01:24:48.038Z,3.2
2023-01-19T01:25:48.962Z,3.2
2023-01-19T01:26:49.938Z,3.2
2023-01-19T01:27:50.904Z,3.3
2023-01-19T01:28:51.925Z,3.3
2023-01-19T01:29:52.996Z,3.2
2023-01-19T01:30:54.008Z,3
2023-01-19T01:31:55.013Z,3
2023-01-19T01:32:55.975Z,3.1
2023-01-19T01:33:56.962Z,3.2
2023-01-19T01:34:57.958Z,3.3
2023-01-19T01:35:58.988Z,3.3
2023-01-19T01:36:59.990Z,3.3
2023-01-19T01:38:00.905Z,3.3
2023-01-19T01:39:02.207Z,3.3
2023-01-19T01:40:02.979Z,3.2
2023-01-19T01:41:06.952Z,3
2023-01-19T01:42:07.919Z,3.1
2023-01-19T01:43:08.964Z,3.1
2023-01-19T01:44:09.981Z,3.1
2023-01-19T01:45:10.979Z,3
2023-01-19T01:46:11.980Z,3
2023-01-19T01:47:13.000Z,3
2023-01-19T01:48:14.907Z,2.9
2023-01-19T01:49:17.035Z,2.8
2023-01-19T01:50:17.961Z,2.8
2023-01-19T01:51:18.990Z,2.7
2023-01-19T01:52:20.014Z,2.6
2023-01-19T01:53:20.960Z,2.6
2023-01-19T01:54:21.960Z,2.6
2023-01-19T01:55:22.940Z,2.7
2023-01-19T01:56:23.914Z,2.7
2023-01-19T01:57:24.959Z,2.8
2023-01-19T01:58:26.001Z,2.8
2023-01-19T01:59:26.940Z,2.8
2023-01-19T02:00:27.985Z,2.8
2023-01-19T02:01:29.108Z,2.8
2023-01-19T02:02:30.006Z,2.8
2023-01-19T02:06:44.917Z,2.8
2023-01-19T02:07:45.949Z,2.8
2023-01-19T02:08:46.913Z,2.7
2023-01-19T02:09:47.999Z,2.6
2023-01-19T02:10:48.981Z,2.3
2023-01-19T02:11:49.959Z,1.9
2023-01-19T02:12:50.904Z,1.9
2023-01-19T02:13:51.968Z,2
2023-01-19T02:14:52.981Z,2
2023-01-19T02:15:54.010Z,2.1
2023-01-19T02:16:55.001Z,2.1
2023-01-19T02:17:55.939Z,2.2
2023-01-19T02:18:56.961Z,2.2
2023-01-19T02:19:57.991Z,2.2
2023-01-19T02:20:58.960Z,2.2
2023-01-19T02:21:59.907Z,2.3
2023-01-19T02:23:01.374Z,2.4
2023-01-19T02:24:01.970Z,2.3
2023-01-19T02:25:02.986Z,2.3
2023-01-19T02:26:04.001Z,2.1
2023-01-19T02:27:05.004Z,2.1
2023-01-19T02:28:06.307Z,2.1
2023-01-19T02:29:07.984Z,2
2023-01-19T02:30:08.971Z,2
2023-01-19T02:31:10.002Z,1.9
2023-01-19T02:32:10.943Z,1.8
2023-01-19T02:33:11.960Z,1.8
2023-01-19T02:34:12.941Z,1.8
2023-01-19T02:35:13.979Z,1.6
2023-01-19T02:36:14.998Z,1.5
2023-01-19T02:37:15.979Z,1.6
2023-01-19T02:38:17.035Z,1.7
2023-01-19T02:39:17.959Z,1.7
2023-01-19T02:40:18.983Z,1.8
2023-01-19T02:41:20.027Z,1.9
2023-01-19T02:42:21.057Z,1.9
2023-01-19T02:43:21.972Z,2.1
2023-01-19T02:44:22.964Z,2.1
2023-01-19T02:45:24.460Z,2.1
2023-01-19T02:46:25.987Z,2.1
2023-01-19T02:47:26.905Z,1.8
2023-01-19T02:48:27.943Z,1.7
2023-01-19T02:49:29.520Z,1.6
2023-01-19T02:50:32.096Z,1.6
2023-01-19T02:51:32.020Z,1.6
2023-01-19T02:52:32.948Z,1.7
2023-01-19T02:53:34.003Z,1.9
2023-01-19T02:54:34.938Z,2
2023-01-19T02:55:36.020Z,2
2023-01-19T02:56:37.266Z,1.9
2023-01-19T02:57:38.019Z,1.8
2023-01-19T02:58:38.959Z,1.8
2023-01-19T02:59:40.019Z,1.8
2023-01-19T03:00:41.084Z,2
2023-01-19T03:01:42.051Z,1.8
2023-01-19T03:02:43.017Z,1.8
2023-01-19T03:03:43.998Z,1.7
2023-01-19T03:04:44.985Z,1.8
2023-01-19T03:05:46.021Z,1.9
2023-01-19T03:06:46.982Z,2
2023-01-19T03:07:47.978Z,2
2023-01-19T03:08:49.010Z,1.9
2023-01-19T03:09:50.602Z,1.6
2023-01-19T03:10:51.991Z,1.6
2023-01-19T03:11:53.018Z,1.7
2023-01-19T03:12:53.979Z,1.7
2023-01-19T03:13:54.959Z,1.8
2023-01-19T03:14:55.999Z,1.9
2023-01-19T03:15:56.984Z,1.9
2023-01-19T03:16:58.006Z,2
2023-01-19T03:17:58.962Z,2
2023-01-19T03:18:59.999Z,2
2023-01-19T03:20:01.003Z,1.9
2023-01-19T03:21:02.004Z,2
2023-01-19T03:22:02.999Z,2
2023-01-19T03:23:04.219Z,1.8
2023-01-19T03:24:04.971Z,1.6
2023-01-19T03:25:06.287Z,1.5
2023-01-19T03:26:06.998Z,1.7
2023-01-19T03:27:08.083Z,1.8
2023-01-19T03:28:08.979Z,1.9
2023-01-19T03:29:10.194Z,1.9
2023-01-19T03:30:11.219Z,1.9
2023-01-19T03:31:12.028Z,1.8
2023-01-19T03:32:13.084Z,1.8
2023-01-19T03:33:13.999Z,1.9
2023-01-19T03:34:14.959Z,1.9
2023-01-19T03:35:16.421Z,2
2023-01-19T03:36:16.943Z,2.1
2023-01-19T03:37:18.023Z,2.2
2023-01-19T03:38:19.060Z,2
2023-01-19T03:39:20.490Z,1.7
2023-01-19T03:40:21.999Z,1.4
2023-01-19T03:41:22.989Z,1.3
2023-01-19T03:42:24.040Z,1.2
2023-01-19T03:43:25.000Z,1.1
2023-01-19T03:44:25.998Z,1.1
2023-01-19T03:45:26.965Z,1.2
2023-01-19T03:46:28.094Z,1.4
2023-01-19T03:47:29.019Z,1.5
2023-01-19T03:48:30.030Z,1.5
2023-01-19T03:49:30.986Z,1.5
2023-01-19T03:50:32.070Z,1.6
2023-01-19T03:51:32.999Z,1.6
2023-01-19T03:52:34.026Z,1.5
2023-01-19T03:53:34.979Z,1.6
2023-01-19T03:54:36.010Z,1.6
2023-01-19T03:55:37.018Z,1.7
2023-01-19T03:56:37.945Z,1.6
2023-01-19T03:57:38.980Z,1.5
2023-01-19T03:58:39.999Z,1.5
2023-01-19T03:59:40.962Z,1.5
2023-01-19T04:00:41.999Z,1.5
2023-01-19T04:01:43.085Z,1.5
2023-01-19T04:02:44.126Z,1.5
2023-01-19T04:03:44.983Z,1.5
2023-01-19T04:04:45.984Z,1.4
2023-01-19T04:05:46.999Z,1.2
2023-01-19T04:06:48.011Z,1
2023-01-19T04:07:49.080Z,0.9
2023-01-19T04:08:50.006Z,0.8
2023-01-19T04:09:51.026Z,1
2023-01-19T04:10:51.981Z,1.1
2023-01-19T04:11:53.007Z,1.2
2023-01-19T04:12:54.006Z,1.4
2023-01-19T04:13:54.980Z,1.4
2023-01-19T04:14:55.982Z,1.5
2023-01-19T04:15:57.019Z,1.7
2023-01-19T04:16:57.979Z,1.7
2023-01-19T04:17:59.029Z,1.7
2023-01-19T04:19:00.063Z,1.7
2023-01-19T04:20:01.022Z,1.6
2023-01-19T04:21:02.069Z,1.6
2023-01-19T04:22:03.008Z,1.6
2023-01-19T04:23:04.313Z,1.7
2023-01-19T04:24:04.991Z,1.6
2023-01-19T04:25:06.383Z,1.5
2023-01-19T04:26:08.030Z,1.5
2023-01-19T04:27:08.987Z,1.6
2023-01-19T04:28:10.021Z,1.6
2023-01-19T04:29:11.020Z,1.6
2023-01-19T04:30:12.000Z,1.4
2023-01-19T04:31:13.038Z,1.4
2023-01-19T04:32:14.020Z,1.4
2023-01-19T04:33:15.040Z,1.4
2023-01-19T04:34:16.107Z,1.4
2023-01-19T04:35:17.052Z,1.4
2023-01-19T04:36:18.027Z,1.4
2023-01-19T04:37:19.031Z,1.5
2023-01-19T04:38:20.099Z,1.5
2023-01-19T04:39:21.027Z,1.5
2023-01-19T04:40:22.052Z,1.4
2023-01-19T04:41:22.962Z,1.3
2023-01-19T04:42:24.018Z,1.2
2023-01-19T04:43:25.141Z,1.3
2023-01-19T04:44:26.023Z,1.5
2023-01-19T04:45:27.004Z,1.5
2023-01-19T04:46:28.071Z,1.5
2023-01-19T04:47:29.010Z,1.5
2023-01-19T04:48:30.137Z,1.5
2023-01-19T04:49:31.039Z,1.5
2023-01-19T04:50:31.991Z,1.6
2023-01-19T04:51:33.027Z,1.4
2023-01-19T04:52:34.020Z,1.3
2023-01-19T04:53:35.144Z,1.4
2023-01-19T04:54:36.019Z,1.6
2023-01-19T04:55:37.048Z,1.8
2023-01-19T04:56:38.011Z,1.9
2023-01-19T04:57:39.018Z,2
2023-01-19T04:58:40.086Z,2
2023-01-19T04:59:41.039Z,2
2023-01-19T05:00:42.061Z,2
2023-01-19T05:01:43.050Z,2.1
2023-01-19T05:02:44.156Z,2.1
2023-01-19T05:03:45.039Z,2.1
2023-01-19T05:04:46.063Z,2.2
2023-01-19T05:05:47.051Z,2.1
2023-01-19T05:06:48.080Z,2.1
2023-01-19T05:07:49.049Z,2.2
2023-01-19T05:08:50.128Z,2.1
2023-01-19T05:09:51.055Z,1.9
2023-01-19T05:10:52.095Z,1.9
2023-01-19T05:11:53.067Z,1.8
2023-01-19T05:12:54.119Z,1.9
2023-01-19T05:13:55.600Z,1.9
2023-01-19T05:14:57.019Z,1.9
2023-01-19T05:15:58.646Z,1.9
2023-01-19T05:17:00.139Z,2
2023-01-19T05:18:01.129Z,1.9
2023-01-19T05:19:02.040Z,1.6
2023-01-19T05:20:03.540Z,1.4
2023-01-19T05:21:05.044Z,1.4
2023-01-19T05:22:06.543Z,1.5
2023-01-19T05:23:08.100Z,1.7
2023-01-19T05:24:09.021Z,1.6
2023-01-19T05:25:10.037Z,1.4
2023-01-19T05:26:11.046Z,1.3
2023-01-19T05:27:12.044Z,1.2
2023-01-19T05:28:13.100Z,1.3
2023-01-19T05:29:14.073Z,1.2
2023-01-19T05:30:15.023Z,1
2023-01-19T05:31:17.942Z,1
2023-01-19T05:32:17.018Z,1
2023-01-19T05:33:18.038Z,1
2023-01-19T05:34:19.048Z,1.1
2023-01-19T05:35:27.919Z,1.2
2023-01-19T05:36:21.068Z,1.3
2023-01-19T05:37:22.119Z,1.3
2023-01-19T05:38:34.032Z,1.5
2023-01-19T05:39:24.560Z,1.6
2023-01-19T05:40:26.059Z,1.7
2023-01-19T05:41:27.483Z,1.6
2023-01-19T05:42:30.363Z,1.5
2023-01-19T05:43:30.015Z,1.4
2023-01-19T05:44:31.063Z,1.2
2023-01-19T05:45:32.039Z,1
2023-01-19T05:46:33.085Z,0.8
2023-01-19T05:47:34.059Z,0.6
2023-01-19T05:48:35.121Z,0.6
2023-01-19T05:49:36.099Z,0.5
2023-01-19T05:50:37.034Z,0.5
2023-01-19T05:51:38.159Z,0.7
2023-01-19T05:52:39.043Z,0.7
2023-01-19T05:53:40.084Z,0.6
2023-01-19T05:54:41.147Z,0.7
2023-01-19T05:55:42.022Z,0.7
2023-01-19T05:56:43.090Z,0.8
2023-01-19T05:57:44.049Z,0.7
2023-01-19T05:58:45.047Z,0.6
2023-01-19T05:59:46.090Z,0.6
2023-01-19T06:00:47.060Z,0.6
2023-01-19T06:01:48.063Z,0.5
2023-01-19T06:02:49.107Z,0.6
2023-01-19T06:03:50.080Z,0.7
2023-01-19T06:04:51.079Z,1
2023-01-19T06:05:52.063Z,1.1
2023-01-19T06:06:53.147Z,1.2
2023-01-19T06:07:54.039Z,1.1
2023-01-19T06:08:55.048Z,1
2023-01-19T06:09:56.063Z,1
2023-01-19T06:10:57.053Z,1.1
2023-01-19T06:11:58.093Z,1.2
2023-01-19T06:12:59.470Z,1.4
2023-01-19T06:14:00.164Z,1.5
2023-01-19T06:15:01.096Z,1.7
2023-01-19T06:16:02.122Z,1.5
2023-01-19T06:17:03.131Z,1.3
2023-01-19T06:18:04.078Z,1.3
2023-01-19T06:19:06.158Z,1.3
2023-01-19T06:20:07.082Z,1.2
2023-01-19T06:21:08.042Z,1.4
2023-01-19T06:22:09.059Z,1.3
2023-01-19T06:23:10.118Z,1.2
2023-01-19T06:24:12.143Z,1.1
2023-01-19T06:25:12.037Z,1.1
2023-01-19T06:26:13.060Z,1.2
2023-01-19T06:27:14.092Z,1.2
2023-01-19T06:28:15.419Z,1.3
2023-01-19T06:29:17.067Z,1.4
2023-01-19T06:30:18.059Z,1.5
2023-01-19T06:31:19.109Z,1.5
2023-01-19T06:32:20.128Z,1.3
2023-01-19T06:33:21.117Z,1.3
2023-01-19T06:34:22.058Z,1.4
2023-01-19T06:35:23.042Z,1.5
2023-01-19T06:36:24.141Z,1.5
2023-01-19T06:37:25.078Z,1.6
2023-01-19T06:38:26.334Z,1.4
2023-01-19T06:39:27.563Z,1.1
2023-01-19T06:40:29.132Z,1
2023-01-19T06:41:31.141Z,1
2023-01-19T06:42:32.129Z,1.1
2023-01-19T06:43:33.457Z,1.1
2023-01-19T06:44:35.139Z,1.1
2023-01-19T06:45:36.167Z,1.2
2023-01-19T06:46:37.060Z,1.3
2023-01-19T06:47:38.079Z,1.5
2023-01-19T06:48:39.065Z,1.7
2023-01-19T06:49:40.146Z,1.7
2023-01-19T06:50:41.339Z,1.7
2023-01-19T06:51:42.300Z,1.7
2023-01-19T06:52:43.079Z,1.6
2023-01-19T06:53:44.056Z,1.6
2023-01-19T06:54:45.361Z,1.5
2023-01-19T06:55:46.097Z,1.7
2023-01-19T06:56:47.059Z,1.7
2023-01-19T06:57:48.109Z,1.8
2023-01-19T06:58:50.099Z,1.6
2023-01-19T06:59:51.098Z,1.4
2023-01-19T07:00:52.362Z,1.5
2023-01-19T07:01:53.212Z,1.6
2023-01-19T07:02:54.226Z,1.7
2023-01-19T07:03:56.088Z,1.6
2023-01-19T07:04:57.156Z,1.4
2023-01-19T07:05:59.140Z,1.5
2023-01-19T07:07:00.203Z,1.4
2023-01-19T07:08:01.104Z,1.3
2023-01-19T07:09:02.114Z,1.3
2023-01-19T07:10:03.104Z,1.3
2023-01-19T07:11:22.632Z,1.4
2023-01-19T07:12:05.084Z,1.3
2023-01-19T07:13:06.775Z,1.3
2023-01-19T07:14:08.099Z,1.4
2023-01-19T07:15:09.151Z,1.3
2023-01-19T07:16:10.099Z,1.2
2023-01-19T07:17:11.107Z,1.1
2023-01-19T07:18:12.139Z,1.1
2023-01-19T07:19:13.080Z,1.1
2023-01-19T07:20:14.126Z,0.9
2023-01-19T07:21:15.089Z,0.8
2023-01-19T07:22:16.130Z,0.7
2023-01-19T07:23:17.170Z,0.7
2023-01-19T07:24:18.099Z,0.6
2023-01-19T07:25:19.120Z,0.7
2023-01-19T07:26:20.121Z,0.8
2023-01-19T07:27:21.102Z,1.1
2023-01-19T07:28:22.775Z,1.3
2023-01-19T07:29:24.167Z,1.4
2023-01-19T07:30:25.100Z,1.6
2023-01-19T07:31:26.240Z,1.7
2023-01-19T07:32:27.105Z,1.7
2023-01-19T07:33:28.143Z,1.8
2023-01-19T07:34:29.087Z,1.9
2023-01-19T07:35:30.181Z,1.9
2023-01-19T07:36:31.073Z,2
2023-01-19T07:37:32.083Z,2
2023-01-19T07:38:33.141Z,2
2023-01-19T07:39:34.080Z,2.1
2023-01-19T07:40:36.128Z,2.1
2023-01-19T07:41:37.085Z,2.2
2023-01-19T07:42:38.126Z,2.2
2023-01-19T07:43:39.174Z,2.1
2023-01-19T07:44:40.199Z,2
2023-01-19T07:45:41.476Z,2
2023-01-19T07:46:42.441Z,2
2023-01-19T07:47:43.089Z,1.7
2023-01-19T07:48:44.144Z,1.5
2023-01-19T07:49:45.072Z,1.3
2023-01-19T07:50:46.126Z,1.2
2023-01-19T07:51:47.080Z,1
2023-01-19T07:52:48.405Z,0.8
2023-01-19T07:53:49.741Z,0.9
2023-01-19T07:54:51.122Z,0.9
2023-01-19T07:55:53.111Z,1
2023-01-19T07:56:54.073Z,1.1
2023-01-19T07:57:55.161Z,1.2
2023-01-19T07:58:56.211Z,1.3
2023-01-19T07:59:57.107Z,1.4
2023-01-19T08:00:58.257Z,1.5
2023-01-19T08:01:59.429Z,1.6
2023-01-19T08:03:00.558Z,1.7
2023-01-19T08:04:01.167Z,1.6
2023-01-19T08:05:02.134Z,1.5
2023-01-19T08:06:03.177Z,1.5
2023-01-19T08:07:04.098Z,1.6
2023-01-19T08:08:05.068Z,1.6
2023-01-19T08:09:06.763Z,1.7
2023-01-19T08:10:08.131Z,1.7
2023-01-19T08:11:09.093Z,1.7
2023-01-19T08:12:10.090Z,1.6
2023-01-19T08:13:11.735Z,1.6
2023-01-19T08:14:13.233Z,1.7
2023-01-19T08:15:14.099Z,1.8
2023-01-19T08:16:15.454Z,1.7
2023-01-19T08:17:16.079Z,1.6
2023-01-19T08:18:17.164Z,1.5
2023-01-19T08:19:18.094Z,1.2
2023-01-19T08:20:19.136Z,1
2023-01-19T08:21:20.206Z,0.9
2023-01-19T08:22:21.127Z,0.8
2023-01-19T08:23:22.182Z,0.9
2023-01-19T08:24:23.172Z,1.1
2023-01-19T08:25:24.155Z,1.2
2023-01-19T08:26:25.070Z,1.2
2023-01-19T08:27:26.165Z,1.3
2023-01-19T08:28:27.400Z,1.3
2023-01-19T08:29:28.224Z,1.3
2023-01-19T08:30:29.095Z,1.4
2023-01-19T08:31:30.340Z,1.4
2023-01-19T08:32:31.145Z,1.3
2023-01-19T08:33:32.121Z,1.3
2023-01-19T08:34:33.105Z,1.4
2023-01-19T08:35:34.065Z,1.5
2023-01-19T08:36:35.389Z,1.6
2023-01-19T08:37:36.169Z,1.6
2023-01-19T08:38:37.147Z,1.6
2023-01-19T08:39:38.108Z,1.7
2023-01-19T08:40:39.120Z,1.8
2023-01-19T08:41:40.293Z,1.7
2023-01-19T08:42:41.091Z,1.8
2023-01-19T08:43:42.116Z,1.8
2023-01-19T08:44:56.982Z,1.8
2023-01-19T08:45:45.150Z,1.9
2023-01-19T08:46:46.202Z,1.9
2023-01-19T08:47:47.194Z,2
2023-01-19T08:48:48.165Z,2.1
2023-01-19T08:49:49.127Z,2.2
2023-01-19T08:50:50.124Z,2.3
2023-01-19T08:51:51.152Z,2.5
2023-01-19T08:52:52.110Z,2.6
2023-01-19T08:53:53.678Z,2.7
2023-01-19T08:54:55.160Z,2.6
2023-01-19T08:55:56.170Z,2.3
2023-01-19T08:56:57.180Z,2.1
2023-01-19T08:57:58.941Z,2
2023-01-19T08:59:08.968Z,1.7
2023-01-19T09:00:02.473Z,1.7
2023-01-19T09:01:04.203Z,1.9
2023-01-19T09:02:04.178Z,1.7
2023-01-19T09:03:05.592Z,1.6
2023-01-19T09:04:06.775Z,1.3
2023-01-19T09:05:08.249Z,1.2
2023-01-19T09:06:09.130Z,1.2
2023-01-19T09:07:10.110Z,1.3
2023-01-19T09:08:11.171Z,1.4
2023-01-19T09:09:12.219Z,1.7
2023-01-19T09:10:13.182Z,1.9
2023-01-19T09:11:14.115Z,1.9
2023-01-19T09:12:15.305Z,2.1
2023-01-19T09:13:16.137Z,2.3
2023-01-19T09:14:17.188Z,2.5
2023-01-19T09:15:18.329Z,2.6
2023-01-19T09:16:19.158Z,2.8
2023-01-19T09:17:20.217Z,2.6
2023-01-19T09:18:21.127Z,2.6
2023-01-19T09:19:22.280Z,2.4
2023-01-19T09:20:23.167Z,2.4
2023-01-19T09:21:24.140Z,2.4
2023-01-19T09:22:25.200Z,2.3
2023-01-19T09:23:26.187Z,2
2023-01-19T09:24:27.159Z,1.9
2023-01-19T09:25:28.140Z,1.8
2023-01-19T09:26:29.624Z,1.6
2023-01-19T09:27:30.970Z,1.7
2023-01-19T09:28:32.107Z,1.7
2023-01-19T09:29:33.489Z,1.9
2023-01-19T09:30:34.197Z,1.9
2023-01-19T09:31:35.220Z,1.8
2023-01-19T09:32:36.133Z,1.8
2023-01-19T09:33:37.235Z,1.8
2023-01-19T09:34:38.157Z,1.6
2023-01-19T09:35:39.181Z,1.5
2023-01-19T09:36:40.252Z,1.5
2023-01-19T09:37:41.146Z,1.5
2023-01-19T09:38:42.189Z,1.5
2023-01-19T09:39:43.169Z,1.6
2023-01-19T09:40:44.180Z,1.8
2023-01-19T09:41:45.104Z,1.9
2023-01-19T09:42:46.194Z,1.9
2023-01-19T09:43:47.252Z,1.9
2023-01-19T09:44:48.170Z,1.9
2023-01-19T09:45:49.211Z,1.9
2023-01-19T09:46:50.202Z,1.9
2023-01-19T09:47:51.161Z,2
2023-01-19T09:48:52.229Z,2
2023-01-19T09:49:53.562Z,2.1
2023-01-19T09:50:55.196Z,2.1
2023-01-19T09:51:56.135Z,2.1
2023-01-19T09:52:57.185Z,2.1
2023-01-19T09:53:58.243Z,2.2
2023-01-19T09:54:59.234Z,2.3
2023-01-19T09:56:00.292Z,2.2
2023-01-19T09:57:01.228Z,2.2
2023-01-19T09:58:02.664Z,2.5
2023-01-19T09:59:03.669Z,2.7
2023-01-19T10:00:05.158Z,2.9
2023-01-19T10:01:06.320Z,3
2023-01-19T10:02:07.923Z,3.2
2023-01-19T10:03:09.232Z,3.1
2023-01-19T10:04:10.178Z,3
2023-01-19T10:05:11.143Z,2.9
2023-01-19T10:06:12.240Z,2.9
2023-01-19T10:07:14.497Z,2.9
2023-01-19T10:08:16.188Z,3
2023-01-19T10:09:17.446Z,3
2023-01-19T10:10:18.221Z,3.1
2023-01-19T10:11:19.185Z,3.2
2023-01-19T10:12:20.540Z,3.4
2023-01-19T10:13:22.228Z,3.5
2023-01-19T10:14:23.169Z,3.5
2023-01-19T10:15:24.244Z,3.5
2023-01-19T10:16:25.623Z,3.6
2023-01-19T10:17:27.203Z,3.9
2023-01-19T10:18:28.134Z,4
2023-01-19T10:19:29.150Z,3.9
2023-01-19T10:20:30.276Z,4
2023-01-19T10:21:31.603Z,3.9
2023-01-19T10:22:33.344Z,3.7
2023-01-19T10:23:34.218Z,3.7
2023-01-19T10:24:35.204Z,3.5
2023-01-19T10:25:36.226Z,3.4
2023-01-19T10:26:37.248Z,3.5
2023-01-19T10:27:38.162Z,3.7
2023-01-19T10:28:39.318Z,3.7
2023-01-19T10:29:41.460Z,3.7
2023-01-19T10:30:43.266Z,3.7
2023-01-19T10:31:44.311Z,3.5
2023-01-19T10:32:45.255Z,3.5
2023-01-19T10:33:46.178Z,3.4
2023-01-19T10:34:47.227Z,3.3
2023-01-19T10:35:48.183Z,3.3
2023-01-19T10:36:49.177Z,3.4
2023-01-19T10:37:50.191Z,3.6
2023-01-19T10:38:51.179Z,3.9
2023-01-19T10:39:52.198Z,4.1
2023-01-19T10:40:53.275Z,4.4
2023-01-19T10:41:54.248Z,4.6
2023-01-19T10:42:55.215Z,4.7
2023-01-19T10:43:56.218Z,4.6
2023-01-19T10:44:57.207Z,4.7
2023-01-19T10:45:58.252Z,4.8
2023-01-19T10:46:59.354Z,4.8
2023-01-19T10:48:00.239Z,4.8
2023-01-19T10:49:01.320Z,4.6
2023-01-19T10:50:02.296Z,4.3
2023-01-19T10:51:04.237Z,4
2023-01-19T10:52:05.398Z,3.8
2023-01-19T10:53:07.210Z,3.8
2023-01-19T10:54:08.204Z,3.6
2023-01-19T10:55:09.178Z,3.4
2023-01-19T10:56:10.254Z,3.5
2023-01-19T10:57:11.183Z,3.7
2023-01-19T10:58:12.598Z,3.8
2023-01-19T10:59:13.219Z,3.7
2023-01-19T11:00:14.720Z,3.9
2023-01-19T11:01:16.324Z,4.1
2023-01-19T11:02:17.540Z,4.4
2023-01-19T11:03:18.454Z,4.6
2023-01-19T11:04:19.174Z,4.9
2023-01-19T11:05:20.230Z,4.8
2023-01-19T11:06:21.400Z,5
2023-01-19T11:07:23.229Z,5.3
2023-01-19T11:08:24.202Z,5.5
2023-01-19T11:09:25.200Z,5.7
2023-01-19T11:10:26.261Z,5.9
2023-01-19T11:11:27.160Z,6.1
2023-01-19T11:12:28.203Z,6.1
2023-01-19T11:13:29.199Z,6.3
2023-01-19T11:14:30.182Z,6.5
2023-01-19T11:15:31.620Z,6.9
2023-01-19T11:16:33.265Z,7.2
2023-01-19T11:17:34.344Z,7.2
2023-01-19T11:18:36.579Z,7.2
2023-01-19T11:19:38.286Z,7.4
2023-01-19T11:20:40.259Z,7.5
2023-01-19T11:21:41.208Z,7.4
2023-01-19T11:22:42.199Z,7.4
2023-01-19T11:23:43.228Z,7.2
2023-01-19T11:24:44.258Z,6.9
2023-01-19T11:25:45.180Z,6.8
2023-01-19T11:26:46.268Z,6.9
2023-01-19T11:27:47.200Z,6.7
2023-01-19T11:28:48.207Z,6.3
2023-01-19T11:29:49.215Z,6.3
2023-01-19T11:30:50.706Z,6.5
2023-01-19T11:31:52.337Z,6.7
2023-01-19T11:32:53.215Z,6.9
2023-01-19T11:33:54.258Z,6.8
2023-01-19T11:34:55.187Z,6.4
2023-01-19T11:35:56.207Z,6.2
2023-01-19T11:36:57.519Z,6
2023-01-19T11:37:59.226Z,6
2023-01-19T11:39:00.250Z,6.3
2023-01-19T11:40:01.205Z,6.5
2023-01-19T11:41:02.832Z,6.8
2023-01-19T11:42:04.228Z,7
2023-01-19T11:43:05.255Z,6.7
2023-01-19T11:44:06.280Z,6.4
2023-01-19T11:45:07.741Z,6.3
2023-01-19T11:46:09.423Z,6.6
2023-01-19T11:47:12.180Z,6.6
2023-01-19T11:48:13.265Z,6.4
2023-01-19T11:49:14.220Z,6.5
2023-01-19T11:50:15.241Z,6.6
2023-01-19T11:51:16.211Z,6.7
2023-01-19T11:52:17.278Z,6.9
2023-01-19T11:53:18.221Z,7.2
2023-01-19T11:54:19.201Z,7.3
2023-01-19T11:55:20.247Z,7.4
2023-01-19T11:56:21.258Z,7.6
2023-01-19T11:57:22.305Z,7.7
2023-01-19T11:58:23.219Z,7.9
2023-01-19T11:59:24.199Z,7.9
2023-01-19T12:00:25.272Z,7.8
2023-01-19T12:01:27.295Z,7.9
2023-01-19T12:02:28.286Z,7.7
2023-01-19T12:03:29.363Z,7.5
2023-01-19T12:04:30.258Z,7.6
2023-01-19T12:05:32.185Z,7.5
2023-01-19T12:06:33.227Z,7.1
2023-01-19T12:07:34.220Z,7
2023-01-19T12:08:35.307Z,7
2023-01-19T12:09:36.344Z,7.1
2023-01-19T12:10:37.220Z,7.3
2023-01-19T12:11:38.194Z,7.2
2023-01-19T12:12:39.219Z,6.9
2023-01-19T12:13:40.261Z,6.7
2023-01-19T12:14:41.302Z,6.8
2023-01-19T12:15:42.241Z,7
2023-01-19T12:16:43.240Z,7.2
2023-01-19T12:17:45.124Z,7.4
2023-01-19T12:18:46.285Z,7.6
2023-01-19T12:19:47.320Z,7.9
2023-01-19T12:20:48.939Z,8.1
2023-01-19T12:21:50.239Z,8.3
2023-01-19T12:22:51.193Z,8.4
2023-01-19T12:23:52.225Z,8.5
2023-01-19T12:24:53.708Z,8.6
2023-01-19T12:25:55.208Z,8.7
2023-01-19T12:26:56.248Z,8.8
2023-01-19T12:27:57.241Z,8.5
2023-01-19T12:28:58.249Z,8.2
2023-01-19T12:29:59.259Z,8.2
2023-01-19T12:31:00.384Z,8
2023-01-19T12:32:01.950Z,7.9
2023-01-19T12:33:03.239Z,8.1
2023-01-19T12:34:04.252Z,8.3
2023-01-19T12:35:05.263Z,8.3
2023-01-19T12:36:06.201Z,8.2
2023-01-19T12:37:07.250Z,8.1
2023-01-19T12:38:08.260Z,8.1
2023-01-19T12:39:09.300Z,8.1
2023-01-19T12:40:10.281Z,8.3
2023-01-19T12:41:11.218Z,7.9
2023-01-19T12:42:12.239Z,7.3
2023-01-19T12:43:13.240Z,6.7
2023-01-19T12:44:14.260Z,6.4
2023-01-19T12:45:15.267Z,6.4
2023-01-19T12:46:16.305Z,6.3
2023-01-19T12:47:17.265Z,6.4
2023-01-19T12:48:18.259Z,6.5
2023-01-19T12:49:19.418Z,6.6
2023-01-19T12:50:20.306Z,6.9
2023-01-19T12:51:21.215Z,6.9
2023-01-19T12:52:22.231Z,6.6
2023-01-19T12:53:23.195Z,5.9
2023-01-19T12:54:24.258Z,5.7
2023-01-19T12:55:25.226Z,5.7
2023-01-19T12:56:26.279Z,5.5
2023-01-19T12:57:27.244Z,5.4
2023-01-19T12:58:28.278Z,5.3
2023-01-19T12:59:29.321Z,5
2023-01-19T13:00:30.260Z,4.8
2023-01-19T13:01:31.866Z,4.2
2023-01-19T13:02:33.308Z,4.2
2023-01-19T13:03:34.259Z,4.3
2023-01-19T13:04:35.366Z,4.5
2023-01-19T13:05:36.265Z,4.5
2023-01-19T13:06:37.278Z,4.5
2023-01-19T13:07:38.287Z,4.6
2023-01-19T13:08:39.260Z,4.8
2023-01-19T13:09:40.284Z,4.9
2023-01-19T13:10:41.367Z,4.9
2023-01-19T13:11:44.349Z,4.8
2023-01-19T13:12:43.239Z,4.8
2023-01-19T13:13:44.282Z,4.9
2023-01-19T13:14:45.270Z,5.1
2023-01-19T13:15:46.299Z,5.4
2023-01-19T13:16:47.260Z,5.6
2023-01-19T13:17:49.958Z,5.8
2023-01-19T13:18:49.254Z,6
2023-01-19T13:19:50.290Z,6.2
2023-01-19T13:20:52.320Z,6.4
2023-01-19T13:21:53.319Z,6.7
2023-01-19T13:22:54.260Z,6.8
2023-01-19T13:23:55.264Z,6.8
2023-01-19T13:24:57.037Z,6.5
2023-01-19T13:25:59.200Z,6.1
2023-01-19T13:27:00.357Z,5.9
2023-01-19T13:28:01.624Z,5.7
2023-01-19T13:29:02.260Z,6
2023-01-19T13:30:03.476Z,6.2
2023-01-19T13:31:04.379Z,5.8
2023-01-19T13:32:05.300Z,5.8
2023-01-19T13:33:06.269Z,6
2023-01-19T13:34:07.259Z,6.1
2023-01-19T13:35:08.281Z,6
2023-01-19T13:36:09.260Z,6.1
2023-01-19T13:37:10.319Z,5.9
2023-01-19T13:38:11.541Z,5.7
2023-01-19T13:39:12.246Z,5.6
2023-01-19T13:40:13.240Z,5.7
2023-01-19T13:41:14.257Z,5.8
2023-01-19T13:42:16.017Z,6
2023-01-19T13:43:17.819Z,6.3
2023-01-19T13:44:19.272Z,6.5
2023-01-19T13:45:20.280Z,6.4
2023-01-19T13:46:21.336Z,6.5
2023-01-19T13:47:22.343Z,6.2
2023-01-19T13:48:23.289Z,5.9
2023-01-19T13:49:24.438Z,5.6
2023-01-19T13:50:25.825Z,5.6
2023-01-19T13:51:27.259Z,5.4
2023-01-19T13:52:28.321Z,5.6
2023-01-19T13:53:29.282Z,5.8
2023-01-19T13:54:30.235Z,6
2023-01-19T13:55:31.311Z,6.2
2023-01-19T13:56:32.283Z,6.3
2023-01-19T13:57:33.357Z,6.8
2023-01-19T13:58:34.322Z,7
2023-01-19T13:59:35.301Z,7.3
2023-01-19T14:00:36.307Z,7.5
2023-01-19T14:01:37.397Z,7.4
2023-01-19T14:02:38.438Z,7.1
2023-01-19T14:03:39.334Z,7
2023-01-19T14:04:40.258Z,6.6
2023-01-19T14:05:41.390Z,6.2
2023-01-19T14:06:42.298Z,5.9
2023-01-19T14:07:43.377Z,6
2023-01-19T14:08:44.331Z,5.9
2023-01-19T14:09:45.259Z,5.7